Time;durP1;ratioP1;P1;durP2;ratioP2;P2;SDS_P1;SDS_P2;PMS_P1;PMS_P2;Temp;Humidity;BMP_temperature;BMP_pressure;BME280_temperature;BME280_humidity;BME280_pressure;Samples;Min_cycle;Max_cycle;Signal;HPM_P1;HPM_P2
2021/08/24 00:00:02;;;;;;;;;11.75;9.75;;;;;18.07;65.37;101655.84;5095737;27;70261;-60
2021/08/24 00:02:27;;;;;;;;;11.00;10.75;;;;;18.07;65.57;101661.16;5097610;27;45241;-60
2021/08/24 00:04:53;;;;;;;;;9.75;7.75;;;;;18.06;65.68;101655.03;5097005;27;45284;-60
2021/08/24 00:07:18;;;;;;;;;15.75;15.00;;;;;18.04;65.98;101650.84;5097051;27;63262;-60
2021/08/24 00:09:45;;;;;;;;;10.50;9.50;;;;;18.04;65.62;101656.16;5096695;27;69263;-60
2021/08/24 00:12:11;;;;;;;;;13.50;11.75;;;;;18.02;66.04;101653.69;5097733;27;45799;-59
2021/08/24 00:14:36;;;;;;;;;10.50;9.75;;;;;18.00;66.39;101647.69;5096947;27;66797;-60
2021/08/24 00:17:01;;;;;;;;;12.50;11.25;;;;;18.03;66.32;101654.50;5096559;27;65014;-61
2021/08/24 00:19:27;;;;;;;;;13.75;10.50;;;;;18.03;66.35;101649.16;5097376;27;47026;-60
2021/08/24 00:21:52;;;;;;;;;18.25;12.25;;;;;18.03;66.24;101650.03;5095912;27;70735;-59
2021/08/24 00:24:18;;;;;;;;;14.25;13.25;;;;;18.03;65.98;101641.19;5096532;27;69368;-60
2021/08/24 00:26:43;;;;;;;;;12.00;11.25;;;;;18.05;66.23;101636.56;5097552;27;45287;-60
2021/08/24 00:29:09;;;;;;;;;17.00;15.50;;;;;18.05;66.33;101641.88;5096754;27;61770;-60
2021/08/24 00:31:34;;;;;;;;;14.00;12.75;;;;;18.04;66.18;101640.19;5097354;27;45275;-60
2021/08/24 00:33:59;;;;;;;;;15.50;13.75;;;;;18.00;66.31;101641.53;5097505;27;45205;-60
2021/08/24 00:36:25;;;;;;;;;16.50;14.50;;;;;17.97;66.43;101636.50;5096300;27;69020;-60
2021/08/24 00:38:50;;;;;;;;;15.25;14.00;;;;;17.91;66.54;101638.81;5096107;27;75434;-61
2021/08/24 00:41:16;;;;;;;;;18.00;15.25;;;;;17.87;66.52;101637.44;5096531;27;45348;-60
2021/08/24 00:43:42;;;;;;;;;17.75;14.50;;;;;17.84;66.73;101631.59;5097369;27;45348;-60
2021/08/24 00:46:59;;;;;;;;;16.50;16.50;;;;;17.80;67.05;101639.88;5097291;27;45265;-61
2021/08/24 00:49:25;;;;;;;;;11.75;9.50;;;;;17.76;66.64;101635.88;5056304;27;47058;-61
2021/08/24 00:52:06;;;;;;;;;18.75;13.50;;;;;17.73;67.00;101638.00;5097099;27;45450;-60
2021/08/24 00:54:31;;;;;;;;;14.00;13.50;;;;;17.72;67.13;101634.53;5063441;27;45412;-60
2021/08/24 00:56:59;;;;;;;;;14.75;13.25;;;;;17.69;66.94;101641.97;5096875;27;45356;-59
2021/08/24 00:59:24;;;;;;;;;15.25;13.75;;;;;17.63;67.06;101628.31;5096850;27;50025;-61
2021/08/24 01:01:50;;;;;;;;;13.00;12.25;;;;;17.59;67.24;101634.94;5096004;27;71158;-61
2021/08/24 01:04:16;;;;;;;;;13.25;11.75;;;;;17.56;67.37;101632.56;5096958;27;45252;-61
2021/08/24 01:06:44;;;;;;;;;16.00;13.50;;;;;17.54;67.51;101636.41;5078718;27;45569;-60
2021/08/24 01:09:29;;;;;;;;;14.75;13.50;;;;;17.49;67.46;101626.22;5078535;27;52309;-61
2021/08/24 01:12:30;;;;;;;;;15.25;11.50;;;;;17.47;67.56;101623.72;5063448;27;52839;-60
2021/08/24 01:15:12;;;;;;;;;15.50;15.50;;;;;17.45;67.48;101622.22;5085130;27;45372;-61
2021/08/24 01:17:46;;;;;;;;;13.00;12.25;;;;;17.40;68.00;101621.84;5082006;27;50803;-61
2021/08/24 01:20:27;;;;;;;;;17.50;13.50;;;;;17.39;67.91;101622.84;5065885;27;45363;-60
2021/08/24 01:23:14;;;;;;;;;19.00;15.75;;;;;17.35;67.84;101623.16;5082183;27;45265;-61
2021/08/24 01:25:59;;;;;;;;;13.00;12.75;;;;;17.29;68.33;101610.47;5100406;27;45290;-61
2021/08/24 01:28:33;;;;;;;;;16.75;12.75;;;;;17.28;68.02;101607.97;5082421;27;45303;-61
2021/08/24 01:31:31;;;;;;;;;17.50;14.00;;;;;17.27;68.36;101615.09;5065687;27;45987;-61
2021/08/24 01:34:15;;;;;;;;;21.75;18.25;;;;;17.23;68.40;101605.78;5081914;27;45896;-60
2021/08/24 01:36:45;;;;;;;;;14.50;11.50;;;;;17.18;68.63;101595.63;5100203;27;45314;-61
2021/08/24 01:39:33;;;;;;;;;16.25;15.75;;;;;17.14;68.62;101601.38;5065077;27;46583;-61
2021/08/24 01:42:15;;;;;;;;;15.50;15.25;;;;;17.10;68.58;101605.31;5064996;27;52431;-60
2021/08/24 01:45:10;;;;;;;;;19.00;13.75;;;;;17.09;68.94;101606.31;5081804;27;45915;-61
2021/08/24 01:47:57;;;;;;;;;18.75;14.25;;;;;17.07;68.74;101606.50;5095365;27;45334;-60
2021/08/24 01:50:32;;;;;;;;;17.50;13.50;;;;;17.06;69.12;101600.31;5081782;27;45585;-60
2021/08/24 01:53:10;;;;;;;;;15.75;12.25;;;;;17.03;69.14;101602.47;5081483;27;46223;-61
2021/08/24 01:55:44;;;;;;;;;13.50;12.75;;;;;17.02;68.86;101601.63;5064770;27;45372;-60
2021/08/24 01:58:17;;;;;;;;;19.75;18.50;;;;;17.01;69.05;101597.28;5081299;27;46460;-60
2021/08/24 02:00:45;;;;;;;;;25.75;24.25;;;;;16.97;69.37;101590.63;5080700;27;45563;-59
2021/08/24 02:03:11;;;;;;;;;21.50;18.25;;;;;16.94;69.41;101600.69;5064345;27;50645;-60
2021/08/24 02:05:40;;;;;;;;;27.75;21.75;;;;;16.92;69.32;101598.19;5064551;27;45990;-61
2021/08/24 02:08:15;;;;;;;;;19.00;16.25;;;;;16.90;69.75;101602.81;5064931;27;45343;-60
2021/08/24 02:10:40;;;;;;;;;16.50;13.75;;;;;16.90;69.59;101602.81;5082068;27;45245;-60
2021/08/24 02:13:05;;;;;;;;;15.75;15.50;;;;;16.88;69.76;101615.41;5063189;27;74553;-61
2021/08/24 02:15:37;;;;;;;;;18.25;14.75;;;;;16.86;69.84;101607.59;5081014;27;45359;-60
2021/08/24 02:18:03;;;;;;;;;14.00;13.50;;;;;16.86;69.80;101609.41;5064701;27;45418;-60
2021/08/24 02:20:34;;;;;;;;;20.50;18.00;;;;;16.86;69.76;101609.41;5063732;27;45549;-61
2021/08/24 02:23:05;;;;;;;;;19.00;14.50;;;;;16.86;69.62;101612.06;5063751;27;45283;-60
2021/08/24 02:25:33;;;;;;;;;19.50;16.75;;;;;16.87;69.71;101616.41;5081630;27;47085;-59
2021/08/24 02:28:09;;;;;;;;;21.00;18.50;;;;;16.84;69.97;101601.59;5081014;27;45942;-60
2021/08/24 02:30:34;;;;;;;;;21.25;19.50;;;;;16.80;69.99;101607.38;5081219;27;45429;-61
2021/08/24 02:33:00;;;;;;;;;19.75;18.00;;;;;16.76;70.23;101609.47;5063789;27;46129;-60
2021/08/24 02:35:34;;;;;;;;;22.50;16.00;;;;;16.75;70.51;101611.31;5080864;27;45261;-60
2021/08/24 02:38:30;;;;;;;;;22.75;19.50;;;;;16.76;70.29;101609.47;5064379;27;45429;-60
2021/08/24 02:40:56;;;;;;;;;20.50;17.50;;;;;16.75;70.11;101611.31;5079884;27;45234;-60
2021/08/24 02:43:34;;;;;;;;;23.00;18.00;;;;;16.73;70.30;101612.41;5098935;27;45251;-60
2021/08/24 02:46:05;;;;;;;;;25.25;20.50;;;;;16.71;70.50;101609.06;5098924;27;45349;-61
2021/08/24 02:48:30;;;;;;;;;30.25;20.75;;;;;16.70;70.54;101615.38;5063583;27;45315;-61
2021/08/24 02:50:55;;;;;;;;;24.75;18.00;;;;;16.70;70.63;101615.38;5062983;27;63238;-60
2021/08/24 02:53:21;;;;;;;;;20.25;20.25;;;;;16.69;70.35;101608.44;5098334;27;58812;-61
2021/08/24 02:55:48;;;;;;;;;25.75;21.25;;;;;16.68;70.57;101612.88;5080589;27;45300;-60
2021/08/24 02:58:13;;;;;;;;;22.75;16.75;;;;;16.66;70.66;101617.50;5099098;27;45449;-60
2021/08/24 03:00:38;;;;;;;;;21.75;21.25;;;;;16.64;70.86;101611.50;5098442;27;51197;-60
2021/08/24 03:03:04;;;;;;;;;26.00;23.00;;;;;16.64;70.43;101608.84;5097940;27;64995;-61
2021/08/24 03:05:29;;;;;;;;;30.25;19.75;;;;;16.64;70.87;101606.19;5098624;27;45375;-60
2021/08/24 03:07:55;;;;;;;;;30.75;24.75;;;;;16.64;70.96;101605.38;5080025;27;51103;-60
2021/08/24 03:10:22;;;;;;;;;28.25;24.25;;;;;16.61;70.58;101607.34;5079643;27;65314;-60
2021/08/24 03:13:14;;;;;;;;;29.25;26.00;;;;;16.60;70.71;101604.84;5063824;27;46346;-60
2021/08/24 03:16:09;;;;;;;;;34.00;26.75;;;;;16.57;71.13;101605.13;5092434;27;45268;-60
2021/08/24 03:18:37;;;;;;;;;29.25;25.25;;;;;16.56;71.09;101601.66;5072295;27;45507;-60
2021/08/24 03:21:05;;;;;;;;;28.50;27.00;;;;;16.55;71.28;101602.63;5063569;27;45848;-61
2021/08/24 03:23:30;;;;;;;;;37.00;33.50;;;;;16.54;71.15;101600.97;5079892;27;45572;-60
2021/08/24 03:25:56;;;;;;;;;32.00;27.25;;;;;16.53;71.13;101604.59;5079483;27;56620;-60
2021/08/24 03:28:22;;;;;;;;;28.25;26.25;;;;;16.52;71.30;101602.94;5098519;27;45708;-60
2021/08/24 03:30:48;;;;;;;;;34.00;29.75;;;;;16.54;71.16;101606.28;5098255;27;45501;-60
2021/08/24 03:33:13;;;;;;;;;26.25;23.50;;;;;16.54;71.10;101610.72;5079845;27;46116;-59
2021/08/24 03:35:38;;;;;;;;;30.75;27.50;;;;;16.54;71.44;101605.44;5078623;27;72078;-61
2021/08/24 03:38:04;;;;;;;;;38.75;31.50;;;;;16.53;71.31;101609.06;5097333;27;66172;-60
2021/08/24 03:40:29;;;;;;;;;30.75;27.75;;;;;16.52;71.33;101602.94;5097497;27;45622;-60
2021/08/24 03:42:55;;;;;;;;;33.25;29.75;;;;;16.50;71.36;101604.06;5097088;27;75575;-61
2021/08/24 03:45:20;;;;;;;;;30.50;26.25;;;;;16.47;71.45;101603.38;5097263;27;63959;-61
2021/08/24 03:47:46;;;;;;;;;39.75;28.25;;;;;16.46;71.40;101601.69;5098096;27;45350;-60
2021/08/24 03:50:11;;;;;;;;;35.25;30.00;;;;;16.47;71.30;101611.31;5098045;27;45456;-60
2021/08/24 03:52:37;;;;;;;;;30.00;28.50;;;;;16.47;71.67;101608.66;5097792;27;45448;-61
2021/08/24 03:55:02;;;;;;;;;43.50;32.75;;;;;16.45;71.58;101607.97;5097805;27;45413;-59
2021/08/24 03:57:28;;;;;;;;;29.25;27.00;;;;;16.43;71.62;101604.66;5097824;27;45429;-60
2021/08/24 03:59:54;;;;;;;;;32.50;28.25;;;;;16.42;71.56;101607.47;5097301;27;62413;-61
2021/08/24 04:02:19;;;;;;;;;29.50;24.75;;;;;16.41;71.59;101611.09;5097722;27;46912;-60
2021/08/24 04:04:45;;;;;;;;;32.00;30.75;;;;;16.40;71.67;101610.28;5097002;27;65852;-61
2021/08/24 04:07:10;;;;;;;;;28.25;26.00;;;;;16.38;71.98;101603.44;5096960;27;62747;-60
2021/08/24 04:09:36;;;;;;;;;30.75;28.00;;;;;16.37;71.57;101609.72;5096759;27;66070;-60
2021/08/24 04:12:01;;;;;;;;;38.75;32.00;;;;;16.35;71.83;101607.22;5096608;27;73723;-61
2021/08/24 04:14:26;;;;;;;;;38.75;31.25;;;;;16.33;71.67;101611.84;5096901;27;66282;-60
2021/08/24 04:16:52;;;;;;;;;36.00;32.00;;;;;16.32;71.37;101602.22;5096972;27;57873;-60
2021/08/24 04:19:17;;;;;;;;;35.00;31.50;;;;;16.30;72.16;101609.47;5097407;27;46087;-60
2021/08/24 04:21:42;;;;;;;;;43.00;33.50;;;;;16.28;72.11;101604.31;5096163;27;74453;-60
2021/08/24 04:24:10;;;;;;;;;33.25;30.50;;;;;16.26;71.93;101616.88;5078376;27;45260;-60
2021/08/24 04:26:35;;;;;;;;;37.75;32.75;;;;;16.26;72.15;101613.41;5097416;27;45240;-60
2021/08/24 04:29:01;;;;;;;;;33.25;31.25;;;;;16.25;71.78;101625.81;5096884;27;60794;-60
2021/08/24 04:31:36;;;;;;;;;35.50;32.50;;;;;16.25;72.17;101614.38;5097252;27;45974;-60
2021/08/24 04:34:02;;;;;;;;;42.25;33.75;;;;;16.24;72.03;101616.19;5062342;27;45914;-60
2021/08/24 04:36:27;;;;;;;;;34.00;28.00;;;;;16.24;71.86;101625.97;5078344;27;58294;-60
2021/08/24 04:38:52;;;;;;;;;35.75;33.00;;;;;16.22;72.16;101627.94;5096467;27;68334;-60
2021/08/24 04:41:18;;;;;;;;;36.75;29.00;;;;;16.20;71.79;101632.56;5096236;27;71580;-59
2021/08/24 04:43:43;;;;;;;;;40.00;33.50;;;;;16.19;72.15;101628.22;5097207;27;45296;-60
2021/08/24 04:46:09;;;;;;;;;34.00;30.75;;;;;16.18;72.18;101630.03;5095552;27;68316;-61
2021/08/24 04:48:34;;;;;;;;;30.75;30.75;;;;;16.15;72.12;101628.53;5096518;27;58433;-60
2021/08/24 04:50:59;;;;;;;;;38.75;33.50;;;;;16.15;72.33;101625.88;5095998;27;74393;-60
2021/08/24 04:53:25;;;;;;;;;35.25;33.75;;;;;16.16;72.01;101632.03;5078787;27;45328;-61
2021/08/24 04:55:51;;;;;;;;;35.75;32.50;;;;;16.15;71.93;101633.81;5096417;27;45208;-60
2021/08/24 04:58:17;;;;;;;;;34.25;33.25;;;;;16.12;71.94;101635.94;5097026;27;45252;-60
2021/08/24 05:00:42;;;;;;;;;37.25;34.25;;;;;16.11;72.18;101629.78;5095650;27;74445;-60
2021/08/24 05:03:08;;;;;;;;;32.00;29.75;;;;;16.13;72.46;101638.44;5095975;27;66613;-60
2021/08/24 05:05:33;;;;;;;;;39.75;32.50;;;;;16.14;72.36;101628.69;5096039;27;68726;-60
2021/08/24 05:07:58;;;;;;;;;34.50;30.50;;;;;16.13;72.12;101641.09;5096111;27;66071;-60
2021/08/24 05:10:24;;;;;;;;;37.00;30.00;;;;;16.12;72.06;101644.72;5095941;27;67599;-61
2021/08/24 05:12:49;;;;;;;;;33.75;28.75;;;;;16.11;72.42;101642.22;5096764;27;45426;-60
2021/08/24 05:15:14;;;;;;;;;26.00;22.50;;;;;16.11;71.90;101643.06;5096445;27;49349;-60
2021/08/24 05:17:40;;;;;;;;;33.50;31.00;;;;;16.12;72.13;101638.59;5078490;27;45592;-60
2021/08/24 05:20:06;;;;;;;;;40.50;34.00;;;;;16.12;71.94;101639.41;5096662;27;46408;-60
2021/08/24 05:22:32;;;;;;;;;37.00;31.25;;;;;16.12;71.68;101630.66;5096445;27;45426;-60
2021/08/24 05:24:57;;;;;;;;;35.50;32.25;;;;;16.11;71.71;101637.75;5096525;27;45437;-60
2021/08/24 05:27:23;;;;;;;;;38.50;31.00;;;;;16.11;72.06;101643.06;5095658;27;68816;-60
2021/08/24 05:29:48;;;;;;;;;43.50;33.50;;;;;16.14;71.65;101640.09;5095534;27;72048;-60
2021/08/24 05:32:14;;;;;;;;;37.50;29.25;;;;;16.13;71.64;101640.28;5095733;27;65312;-60
2021/08/24 05:34:39;;;;;;;;;39.50;34.50;;;;;16.11;71.80;101644.88;5095512;27;45376;-61
2021/08/24 05:37:05;;;;;;;;;33.25;29.25;;;;;16.13;71.79;101646.41;5095641;27;59866;-59
2021/08/24 05:39:32;;;;;;;;;36.25;31.25;;;;;16.12;72.05;101649.19;5096158;27;45382;-60
2021/08/24 05:41:58;;;;;;;;;34.50;30.50;;;;;16.12;71.76;101647.38;5096069;27;45920;-61
2021/08/24 05:44:23;;;;;;;;;33.00;28.00;;;;;16.15;71.58;101655.03;5096263;27;45364;-60
2021/08/24 05:46:49;;;;;;;;;32.75;29.50;;;;;16.17;71.55;101655.72;5095649;27;61443;-60
2021/08/24 05:49:14;;;;;;;;;37.50;33.00;;;;;16.19;71.51;101657.41;5096285;27;46221;-60
2021/08/24 05:51:39;;;;;;;;;26.25;26.25;;;;;16.21;71.62;101658.09;5095502;27;63561;-60
2021/08/24 05:54:05;;;;;;;;;34.00;27.75;;;;;16.23;71.38;101656.94;5095693;27;58554;-60
2021/08/24 05:56:30;;;;;;;;;32.75;32.25;;;;;16.26;71.54;101655.84;5095909;27;49831;-60
2021/08/24 05:58:56;;;;;;;;;23.00;23.00;;;;;16.27;71.53;101658.34;5096647;27;57935;-59
2021/08/24 06:01:23;;;;;;;;;28.25;27.25;;;;;16.28;71.37;101649.41;5099725;27;45399;-59
2021/08/24 06:03:49;;;;;;;;;36.50;33.00;;;;;16.29;71.38;101655.56;5099479;27;48219;-61
2021/08/24 06:06:35;;;;;;;;;36.50;27.25;;;;;16.30;71.41;101652.72;5081456;27;45366;-60
2021/08/24 06:09:01;;;;;;;;;30.50;27.00;;;;;16.32;71.31;101660.56;5099540;27;45519;-60
2021/08/24 06:11:31;;;;;;;;;28.75;25.50;;;;;16.35;71.41;101665.56;5099599;27;45452;-59
2021/08/24 06:13:57;;;;;;;;;34.00;27.75;;;;;16.39;71.13;101661.66;5099634;27;45467;-59
2021/08/24 06:16:23;;;;;;;;;34.25;30.50;;;;;16.41;71.28;101657.03;5081023;27;45277;-60
2021/08/24 06:18:48;;;;;;;;;30.00;27.75;;;;;16.50;70.81;101665.06;5099294;27;46305;-60
2021/08/24 06:21:14;;;;;;;;;30.25;28.00;;;;;16.55;70.76;101670.78;5098928;27;47150;-60
2021/08/24 06:23:39;;;;;;;;;35.50;32.00;;;;;16.61;70.72;101672.84;5099436;27;45242;-60
2021/08/24 06:26:05;;;;;;;;;34.75;30.25;;;;;16.67;70.27;101669.59;5099291;27;45482;-59
2021/08/24 06:28:30;;;;;;;;;29.00;27.00;;;;;16.69;70.26;101662.31;5099170;27;45292;-60
2021/08/24 06:30:56;;;;;;;;;30.00;24.50;;;;;16.73;70.15;101669.00;5099334;27;45216;-60
2021/08/24 06:33:22;;;;;;;;;28.25;25.00;;;;;16.81;70.20;101667.44;5099311;27;45265;-59
2021/08/24 06:35:47;;;;;;;;;29.75;28.25;;;;;16.85;69.94;101661.66;5064008;27;45285;-60
2021/08/24 06:38:13;;;;;;;;;30.25;25.25;;;;;16.92;69.85;101670.69;5098021;27;72548;-60
2021/08/24 06:40:39;;;;;;;;;27.75;24.25;;;;;17.00;69.60;101662.00;5080985;27;45497;-61
2021/08/24 06:43:04;;;;;;;;;28.75;25.75;;;;;17.08;69.69;101657.75;5080649;27;46731;-61
2021/08/24 06:45:32;;;;;;;;;32.00;26.25;;;;;17.17;69.28;101672.78;5099071;27;45501;-60
2021/08/24 06:47:57;;;;;;;;;29.75;27.50;;;;;17.25;68.95;101664.91;5098123;27;64101;-61
2021/08/24 06:50:23;;;;;;;;;35.75;30.75;;;;;17.35;68.89;101663.00;5098757;27;45374;-60
2021/08/24 06:52:49;;;;;;;;;29.50;28.50;;;;;17.43;68.61;101659.56;5099076;27;45395;-60
2021/08/24 06:55:14;;;;;;;;;36.50;31.50;;;;;17.54;68.30;101657.66;5097912;27;68475;-60
2021/08/24 06:57:40;;;;;;;;;30.50;28.00;;;;;17.59;68.27;101664.16;5098450;27;47752;-60
2021/08/24 07:00:07;;;;;;;;;31.50;28.75;;;;;17.68;68.07;101661.56;5098817;27;46810;-60
2021/08/24 07:02:32;;;;;;;;;27.00;24.50;;;;;17.80;67.74;101665.66;5098686;27;45346;-60
2021/08/24 07:04:58;;;;;;;;;31.25;26.75;;;;;17.90;67.52;101658.41;5080490;27;45626;-60
2021/08/24 07:07:23;;;;;;;;;30.00;28.75;;;;;18.03;67.29;101665.13;5098571;27;45142;-60
2021/08/24 07:09:51;;;;;;;;;28.75;24.50;;;;;18.17;66.76;101663.72;5097695;27;50177;-60
2021/08/24 07:12:16;;;;;;;;;31.50;28.00;;;;;18.29;66.46;101665.09;5098756;27;45295;-60
2021/08/24 07:14:42;;;;;;;;;26.75;25.75;;;;;18.39;66.00;101665.00;5097943;27;61692;-60
2021/08/24 07:17:07;;;;;;;;;25.00;18.75;;;;;18.52;65.86;101676.03;5078979;27;70927;-60
2021/08/24 07:19:32;;;;;;;;;26.25;23.25;;;;;18.64;65.36;101675.72;5097498;27;45342;-60
2021/08/24 07:21:58;;;;;;;;;23.25;18.75;;;;;18.75;65.23;101675.41;5097461;27;61701;-61
2021/08/24 07:24:23;;;;;;;;;26.00;23.25;;;;;18.89;64.69;101668.63;5097510;27;45601;-60
2021/08/24 07:26:49;;;;;;;;;27.75;26.00;;;;;19.02;64.30;101670.84;5078711;27;59221;-61
2021/08/24 07:29:15;;;;;;;;;25.25;21.75;;;;;19.12;64.23;101666.19;5097810;27;45365;-60
2021/08/24 07:31:40;;;;;;;;;27.25;24.00;;;;;19.23;64.05;101659.72;5097355;27;64148;-60
2021/08/24 07:34:06;;;;;;;;;19.00;18.50;;;;;19.38;63.56;101664.34;5097388;27;65261;-61
2021/08/24 07:36:31;;;;;;;;;21.25;19.25;;;;;19.51;63.41;101663.88;5097868;27;45555;-60
2021/08/24 07:38:57;;;;;;;;;19.50;16.50;;;;;19.65;62.99;101673.84;5098019;27;45235;-61
2021/08/24 07:41:22;;;;;;;;;24.50;23.50;;;;;19.79;62.05;101669.69;5091718;27;45306;-61
2021/08/24 07:43:47;;;;;;;;;21.00;20.25;;;;;19.92;61.77;101674.50;5088529;27;67482;-61
2021/08/24 07:46:13;;;;;;;;;23.50;20.25;;;;;20.04;60.99;101669.63;5091098;27;73072;-60
2021/08/24 07:48:38;;;;;;;;;21.00;18.50;;;;;20.14;60.94;101670.28;5090383;27;68967;-60
2021/08/24 07:51:03;;;;;;;;;20.25;18.25;;;;;20.26;60.48;101677.91;5091259;27;45879;-60
2021/08/24 07:53:29;;;;;;;;;21.00;17.75;;;;;20.36;60.67;101673.22;5072100;27;69718;-61
2021/08/24 07:55:55;;;;;;;;;19.50;18.75;;;;;20.51;60.50;101675.13;5092584;27;45880;-60
2021/08/24 07:58:20;;;;;;;;;17.25;17.00;;;;;20.64;59.61;101675.41;5092145;27;45314;-60
2021/08/24 08:00:46;;;;;;;;;18.50;18.00;;;;;20.77;58.88;101666.84;5094079;27;45376;-59
2021/08/24 08:03:12;;;;;;;;;20.00;19.25;;;;;20.87;58.44;101669.31;5092550;27;46843;-60
2021/08/24 08:05:37;;;;;;;;;19.00;17.25;;;;;20.99;58.68;101672.38;5094356;27;46145;-60
2021/08/24 08:08:03;;;;;;;;;19.25;17.00;;;;;21.09;58.25;101678.34;5086264;27;72266;-60
2021/08/24 08:10:28;;;;;;;;;18.50;18.50;;;;;21.22;57.75;101671.53;5095588;27;45453;-60
2021/08/24 08:12:54;;;;;;;;;16.75;15.25;;;;;21.33;58.18;101673.78;5094777;27;64594;-60
2021/08/24 08:15:19;;;;;;;;;13.25;13.25;;;;;21.42;57.57;101669.22;5087953;27;47098;-60
2021/08/24 08:17:45;;;;;;;;;15.00;14.75;;;;;21.58;57.82;101676.28;5092434;27;45239;-59
2021/08/24 08:20:10;;;;;;;;;18.00;15.50;;;;;21.74;56.35;101676.13;5088728;27;49392;-60
2021/08/24 08:22:36;;;;;;;;;16.50;13.25;;;;;21.87;55.92;101680.84;5070383;27;45445;-60
2021/08/24 08:25:02;;;;;;;;;15.00;15.00;;;;;22.01;55.62;101684.53;5083531;27;45884;-60
2021/08/24 08:27:28;;;;;;;;;16.25;14.25;;;;;22.15;55.04;101688.22;5084638;27;45519;-60
2021/08/24 08:29:53;;;;;;;;;15.00;14.25;;;;;22.27;54.74;101685.91;5084186;27;58179;-60
2021/08/24 08:32:29;;;;;;;;;16.50;14.00;;;;;22.38;53.85;101684.63;5090641;27;67284;-61
2021/08/24 08:34:55;;;;;;;;;12.50;12.50;;;;;22.51;53.44;101690.19;5071022;27;46119;-60
2021/08/24 08:37:21;;;;;;;;;16.00;14.00;;;;;22.62;53.38;101686.19;5090881;27;45449;-60
2021/08/24 08:39:46;;;;;;;;;13.25;12.50;;;;;22.73;53.14;101686.72;5056684;27;45359;-61
2021/08/24 08:42:31;;;;;;;;;13.00;11.00;;;;;22.86;52.46;101689.53;5085983;27;45577;-60
2021/08/24 08:45:09;;;;;;;;;15.50;11.00;;;;;22.98;52.36;101681.84;5052430;27;45392;-60
2021/08/24 08:48:10;;;;;;;;;11.00;11.00;;;;;23.12;51.57;101685.47;5091099;27;45388;-60
2021/08/24 08:50:46;;;;;;;;;14.00;13.00;;;;;23.28;51.79;101684.41;5076076;27;45416;-61
2021/08/24 08:53:23;;;;;;;;;9.50;9.50;;;;;23.44;51.43;101685.97;5065835;27;45569;-60
2021/08/24 08:56:12;;;;;;;;;9.50;9.50;;;;;23.61;49.86;101680.31;5073592;27;45493;-61
2021/08/24 08:58:38;;;;;;;;;11.25;9.25;;;;;23.77;50.02;101676.50;5089512;27;46026;-60
2021/08/24 09:01:17;;;;;;;;;9.00;9.00;;;;;23.94;49.59;101679.72;5092059;27;45619;-61
2021/08/24 09:03:55;;;;;;;;;12.50;9.00;;;;;24.14;49.21;101686.06;5073035;27;46696;-61
2021/08/24 09:06:23;;;;;;;;;6.25;6.25;;;;;24.35;48.03;101680.78;5070190;27;45442;-60
2021/08/24 09:08:48;;;;;;;;;14.00;10.25;;;;;24.51;47.10;101672.38;5060117;27;45814;-61
2021/08/24 09:11:14;;;;;;;;;10.00;9.00;;;;;24.64;47.19;101674.28;5072200;27;45297;-62
2021/08/24 09:13:45;;;;;;;;;8.00;8.00;;;;;24.80;46.58;101672.28;5074444;27;45598;-61
2021/08/24 09:16:38;;;;;;;;;8.00;7.00;;;;;24.93;45.75;101672.28;5074196;27;46382;-59
2021/08/24 09:19:09;;;;;;;;;11.50;11.25;;;;;25.04;45.19;101674.38;5049859;27;45392;-62
2021/08/24 09:21:37;;;;;;;;;8.25;7.75;;;;;25.14;44.75;101665.91;5044852;27;48494;-61
2021/08/24 09:24:07;;;;;;;;;6.75;6.00;;;;;25.23;44.32;101669.22;5069037;27;45420;-61
2021/08/24 09:27:07;;;;;;;;;9.00;9.00;;;;;25.33;44.31;101666.94;5081180;27;45395;-61
2021/08/24 09:29:46;;;;;;;;;8.00;6.00;;;;;25.46;43.70;101665.28;5087399;27;45921;-61
2021/08/24 09:32:16;;;;;;;;;7.00;7.00;;;;;25.55;42.28;101684.75;5054592;27;46254;-61
2021/08/24 09:34:43;;;;;;;;;7.00;6.75;;;;;25.62;42.09;101664.88;5095377;27;45674;-61
2021/08/24 09:37:08;;;;;;;;;9.75;9.00;;;;;25.66;41.84;101673.38;5089783;27;46261;-61
2021/08/24 09:39:52;;;;;;;;;6.25;6.25;;;;;25.70;42.08;101668.38;5077121;27;70332;-60
2021/08/24 09:42:28;;;;;;;;;7.75;7.50;;;;;25.70;41.57;101661.13;5093770;27;45491;-62
2021/08/24 09:44:54;;;;;;;;;8.75;8.75;;;;;25.77;41.45;101666.50;5095859;27;45703;-60
2021/08/24 09:47:21;;;;;;;;;5.50;5.50;;;;;25.86;41.34;101659.03;5092626;27;45493;-61
2021/08/24 09:49:46;;;;;;;;;7.00;7.00;;;;;25.93;40.85;101666.06;5069018;27;45900;-61
2021/08/24 09:52:18;;;;;;;;;7.00;7.00;;;;;26.00;39.55;101652.56;5055238;27;68429;-61
2021/08/24 09:54:52;;;;;;;;;5.25;5.00;;;;;26.05;39.77;101651.94;5088375;27;45280;-61
2021/08/24 09:57:25;;;;;;;;;5.75;5.00;;;;;26.13;39.76;101659.81;5069348;27;46015;-61
2021/08/24 10:00:03;;;;;;;;;6.00;6.00;;;;;26.17;39.32;101652.94;5090706;27;47277;-60
2021/08/24 10:02:42;;;;;;;;;6.00;6.00;;;;;26.19;38.71;101658.13;5072212;27;45502;-61
2021/08/24 10:05:20;;;;;;;;;6.00;6.00;;;;;26.22;38.63;101642.38;5092539;27;45390;-61
2021/08/24 10:07:47;;;;;;;;;5.50;5.50;;;;;26.22;37.59;101650.44;5096111;27;45345;-61
2021/08/24 10:10:32;;;;;;;;;5.25;4.25;;;;;26.25;38.06;101642.97;5094844;27;46991;-61
2021/08/24 10:12:58;;;;;;;;;4.00;4.00;;;;;26.28;37.59;101647.94;5073797;27;45505;-61
2021/08/24 10:15:28;;;;;;;;;7.75;7.75;;;;;26.33;37.33;101638.16;5093741;27;45282;-61
2021/08/24 10:18:04;;;;;;;;;9.75;7.50;;;;;26.42;37.77;101648.69;5092824;27;45677;-60
2021/08/24 10:20:55;;;;;;;;;4.00;3.50;;;;;26.50;37.44;101637.66;5074324;27;45429;-61
2021/08/24 10:23:26;;;;;;;;;6.50;5.00;;;;;26.58;35.85;101639.28;5068014;27;45363;-61
2021/08/24 10:25:53;;;;;;;;;5.50;4.00;;;;;26.63;36.39;101645.69;5068536;27;45501;-60
2021/08/24 10:28:24;;;;;;;;;5.00;5.00;;;;;26.67;34.08;101646.06;5071833;27;45486;-62
2021/08/24 10:30:54;;;;;;;;;5.75;3.00;;;;;26.63;33.17;101632.22;5061352;27;45697;-61
2021/08/24 10:33:25;;;;;;;;;3.00;3.00;;;;;26.62;34.00;101630.56;5057418;27;45245;-62
2021/08/24 10:35:56;;;;;;;;;6.50;3.50;;;;;26.63;33.88;101640.28;5054752;27;45689;-62
2021/08/24 10:38:35;;;;;;;;;2.00;2.00;;;;;26.66;32.86;101647.09;5069593;27;45585;-61
2021/08/24 10:41:01;;;;;;;;;4.00;3.75;;;;;26.70;31.84;101637.53;5068972;27;45588;-62
2021/08/24 10:43:26;;;;;;;;;5.00;5.00;;;;;26.67;31.54;101643.38;5067882;27;61969;-61
2021/08/24 10:46:15;;;;;;;;;5.00;3.75;;;;;26.60;31.26;101640.72;5086722;27;45458;-61
2021/08/24 10:48:40;;;;;;;;;3.25;2.75;;;;;26.56;30.87;101638.66;5084369;27;45607;-60
2021/08/24 10:51:13;;;;;;;;;3.00;3.00;;;;;26.50;31.91;101633.09;5074311;27;45463;-61
2021/08/24 10:53:48;;;;;;;;;6.75;5.75;;;;;26.48;32.12;101629.81;5073775;27;45490;-61
2021/08/24 10:56:21;;;;;;;;;4.00;3.00;;;;;26.54;32.38;101621.88;5090380;27;45607;-61
2021/08/24 10:59:07;;;;;;;;;5.00;4.00;;;;;26.57;32.49;101640.31;5065371;27;46390;-60
2021/08/24 11:01:37;;;;;;;;;6.00;4.00;;;;;26.59;31.77;101635.53;5088982;27;45448;-61
2021/08/24 11:04:47;;;;;;;;;3.25;3.25;;;;;26.62;31.51;101629.72;5060238;27;45524;-62
2021/08/24 11:07:32;;;;;;;;;3.00;3.00;;;;;26.66;32.07;101636.31;5046870;27;45677;-61
2021/08/24 11:10:02;;;;;;;;;3.00;3.00;;;;;26.65;32.38;101634.66;5069310;27;52385;-61
2021/08/24 11:12:37;;;;;;;;;4.75;3.00;;;;;26.66;32.01;101633.63;5059078;27;45504;-61
2021/08/24 11:15:08;;;;;;;;;4.00;4.00;;;;;26.72;32.27;101626.56;5093958;27;45609;-61
2021/08/24 11:17:54;;;;;;;;;3.75;3.75;;;;;26.84;32.39;101622.13;5093959;27;45490;-61
2021/08/24 11:20:40;;;;;;;;;5.00;4.00;;;;;27.00;31.83;101625.34;5071680;27;47224;-61
2021/08/24 11:23:29;;;;;;;;;3.00;3.00;;;;;27.18;31.79;101621.84;5059018;27;45471;-62